sim
Sign-in with your pilot id or email,
or register
Callsign
Passwort

Schedule Details

Flight Number: OEO6036
Departure: Berlin Tegel Airport (EDDT) at 08:25
Arrival: Fuerteventura Airport (GCFV) at 13:55

Weather Information
Getting current METAR information for EDDT 211450Z 27008KT 9999 -RA BKN029 09/06 Q1022 NOSIG
Getting current METAR information for GCFV 211500Z 06004KT 010V110 CAVOK 20/14 Q1021

Schedule Frequency

Route Map